Jordan, MN

7:51 AM CST on January 25, 2015 (GMT -0600)
APRSWXNET Lydia MN US | Change Station
CLOSE
Current Station
Personal Weather Station
Location: Jordan, MN
Elevation: 931 ft
Nearby Weather Stations

Elev 931 ft 44.66 °N, 93.52 °W | Updated 45 minutes ago

Mostly Cloudy
Mostly Cloudy
25.0 °F
Feels Like 16 °F
N
8.0
Wind Variable Wind from NE
Gusts 14.0 mph

Today
High -- | Low -- °F
--% Chance of Precip.
Yesterday
High -- | Low -- °F
Precip. -- in
7:40 AM 5:12 PM
Waxing Crescent, 32% visible
Pressure 29.93 in
Visibility 10.0 miles
Clouds Scattered Clouds 2600 ft
Mostly Cloudy 3400 ft
Windchill 16 °F
Dew Point 21.0 °F
Humidity 83%
Rainfall 0.01 in
Snow Depth Not available.
UV 0 out of 12
Pollen .10 out of 12
Air Quality Not available.
Flu Activity Not available.
METAR KFCM 251253Z 02012G16KT 10SM SCT026 BKN034 M05/M09 A2990 RMK AO2 SLP135 T10501094

More Conditions Fewer Conditions

Pressure 29.93 in
Visibility 10.0 miles
Clouds Scattered Clouds 2600 ft
Mostly Cloudy 3400 ft
Windchill 16 °F
Dew Point 21.0 °F
Humidity 83%
Rainfall 0.01 in
Snow Depth Not available.
UV 0 out of 12
Pollen .10 out of 12
Air Quality Not available.
Flu Activity Not available.
METAR KFCM 251253Z 02012G16KT 10SM SCT026 BKN034 M05/M09 A2990 RMK AO2 SLP135 T10501094

More Conditions Fewer Conditions

10-Day Weather Forecast

Almanac

Astronomy

Jan. 25, 2015 Rise Set
Actual Time
Civil Twilight
Nautical Twilight
Astronomical Twilight
Moon
Length of Visible Light
Length of Day
Tomorrow will be .
, % of the Moon is Illuminated

Today's Extremes

State Highs State Lows

Community

WunderPhotos

Upload Photos

1,789,885 photos uploaded!

WunderBlogs® & News

Nearby

Air Quality

  Air Quality AQ Index Pollutant
Not available.

Snow Depth

Station Depth Elevation

Earthquake Activity

City Distance Mag. Time & Date
Minimum magnitude displayed is 2.5.

Coastal Water Temperatures

Place Temperature

Nearby Weather Stations